ADDS METAR Data INFO
IDs: Format: Raw Decoded Include TAF

Data at: 1144 UTC 27 May 2017

KPNS 271119Z 03003KT 10SM BKN027 23/21 A3004 RMK AO2 T02330206

KPNS 271120Z 2712/2812 32003KT P6SM SCT025
  FM271800 19010KT P6SM SCT015 BKN025
  FM272100 18008KT P6SM SCT250
  FM280600 VRB03KT P6SM OVC010



Page loaded:  11:44 UTC  |   04:44 AM Pacific  |   05:44 AM Mountain  |   06:44 AM Central  |   07:44 AM Eastern

 

ADVISORIES

FORECASTS

FORECASTS

OBSERVATIONS

USER TOOLS

ABOUT US